Time,TemperatureF,DewpointF,PressureIn,WindDirection,WindDirectionDegrees,WindSpeedMPH,WindSpeedGustMPH,Humidity,HourlyPrecipIn,Conditions,Clouds,dailyrainin,SoftwareType,DateUTC
2013-04-09 00:13:00,45.6,43.0,30.07,SSW,203,5.0,11.0,89,0.00,,,0.00,weatherlink.com 1.10,2013-04-09 04:13:00,
2013-04-09 00:28:00,45.5,43.0,30.07,SSE,158,2.0,7.0,89,0.00,,,0.00,weatherlink.com 1.10,2013-04-09 04:28:00,
2013-04-09 00:43:00,45.6,43.0,30.07,South,191,4.0,9.0,90,0.00,,,0.00,weatherlink.com 1.10,2013-04-09 04:43:00,
2013-04-09 02:14:00,46.4,43.0,30.03,SSE,166,6.0,11.0,88,0.00,,,0.00,weatherlink.com 1.10,2013-04-09 06:14:00,
2013-04-09 02:29:00,46.5,43.0,30.02,SSW,205,5.0,13.0,88,0.00,,,0.00,weatherlink.com 1.10,2013-04-09 06:29:00,
2013-04-09 03:14:00,46.2,44.0,30.00,SSW,194,8.0,14.0,90,0.00,,,0.00,weatherlink.com 1.10,2013-04-09 07:14:00,
2013-04-09 03:29:00,45.9,44.0,30.00,SSE,158,9.0,11.0,91,0.00,,,0.00,weatherlink.com 1.10,2013-04-09 07:29:00,
2013-04-09 03:44:00,45.9,44.0,29.99,South,186,4.0,12.0,92,0.00,,,0.00,weatherlink.com 1.10,2013-04-09 07:44:00,
2013-04-09 04:14:00,45.8,44.0,29.97,SSE,148,3.0,11.0,93,0.00,,,0.00,weatherlink.com 1.10,2013-04-09 08:14:00,
2013-04-09 04:29:00,46.0,44.0,29.97,SSE,162,3.0,9.0,93,0.00,,,0.00,weatherlink.com 1.10,2013-04-09 08:29:00,
2013-04-09 04:44:00,46.1,44.0,29.96,SSE,162,7.0,13.0,93,0.00,,,0.00,weatherlink.com 1.10,2013-04-09 08:44:00,
2013-04-09 05:14:00,46.4,45.0,29.95,SE,134,7.0,12.0,95,0.00,,,0.00,weatherlink.com 1.10,2013-04-09 09:14:00,
2013-04-09 05:29:00,46.7,45.0,29.94,SSE,166,3.0,12.0,95,0.00,,,0.00,weatherlink.com 1.10,2013-04-09 09:29:00,
2013-04-09 05:44:00,46.9,46.0,29.93,SW,221,3.0,13.0,96,0.00,,,0.00,weatherlink.com 1.10,2013-04-09 09:44:00,
2013-04-09 05:59:00,47.1,46.0,29.93,SE,129,6.0,14.0,96,0.00,,,0.00,weatherlink.com 1.10,2013-04-09 09:59:00,
2013-04-09 06:14:00,47.7,47.0,29.93,SSE,155,3.0,10.0,97,0.00,,,0.00,weatherlink.com 1.10,2013-04-09 10:14:00,
2013-04-09 06:29:00,47.9,47.0,29.93,SSE,155,8.0,14.0,97,0.00,,,0.00,weatherlink.com 1.10,2013-04-09 10:29:00,
2013-04-09 06:44:00,48.3,48.0,29.93,South,191,7.0,12.0,97,0.00,,,0.00,weatherlink.com 1.10,2013-04-09 10:44:00,
2013-04-09 06:59:00,49.2,48.0,29.92,SW,222,4.0,14.0,97,0.00,,,0.00,weatherlink.com 1.10,2013-04-09 10:59:00,
2013-04-09 07:14:00,49.3,49.0,29.91,SSW,197,4.0,14.0,97,0.00,,,0.00,weatherlink.com 1.10,2013-04-09 11:14:00,
2013-04-09 07:29:00,49.6,49.0,29.90,South,177,8.0,16.0,97,0.00,,,0.00,weatherlink.com 1.10,2013-04-09 11:29:00,
2013-04-09 07:44:00,49.8,49.0,29.92,SSW,194,4.0,13.0,97,0.00,,,0.00,weatherlink.com 1.10,2013-04-09 11:44:00,
2013-04-09 07:59:00,49.6,49.0,29.91,SSW,193,4.0,15.0,96,0.00,,,0.00,weatherlink.com 1.10,2013-04-09 11:59:00,
2013-04-09 08:14:00,49.9,49.0,29.89,SSW,204,4.0,11.0,97,0.00,,,0.00,weatherlink.com 1.10,2013-04-09 12:14:00,
2013-04-09 08:29:00,50.1,49.0,29.89,South,186,4.0,13.0,96,0.00,,,0.00,weatherlink.com 1.10,2013-04-09 12:29:00,
2013-04-09 08:44:00,50.7,50.0,29.89,South,177,10.0,10.0,96,0.00,,,0.00,weatherlink.com 1.10,2013-04-09 12:44:00,
2013-04-09 08:59:00,51.2,50.0,29.88,West,277,6.0,11.0,94,0.00,,,0.00,weatherlink.com 1.10,2013-04-09 12:59:00,
2013-04-09 09:14:00,51.4,50.0,29.87,SW,218,5.0,16.0,93,0.00,,,0.00,weatherlink.com 1.10,2013-04-09 13:14:00,
2013-04-09 09:29:00,51.6,49.0,29.87,SSE,148,3.0,18.0,92,0.00,,,0.00,weatherlink.com 1.10,2013-04-09 13:29:00,
2013-04-09 09:44:00,51.6,49.0,29.87,WSW,255,5.0,18.0,90,0.00,,,0.00,weatherlink.com 1.10,2013-04-09 13:44:00,
2013-04-09 09:59:00,52.0,49.0,29.87,SW,235,9.0,21.0,90,0.00,,,0.00,weatherlink.com 1.10,2013-04-09 13:59:00,
2013-04-09 10:14:00,52.5,49.0,29.86,ESE,118,1.0,16.0,89,0.00,,,0.00,weatherlink.com 1.10,2013-04-09 14:14:00,
2013-04-09 10:29:00,53.0,49.0,29.86,WSW,253,10.0,16.0,87,0.00,,,0.00,weatherlink.com 1.10,2013-04-09 14:29:00,
2013-04-09 10:45:00,53.4,49.0,29.86,WSW,242,10.0,16.0,85,0.00,,,0.00,weatherlink.com 1.10,2013-04-09 14:45:00,
2013-04-09 11:00:00,54.6,50.0,29.86,South,179,5.0,20.0,84,0.00,,,0.00,weatherlink.com 1.10,2013-04-09 15:00:00,
2013-04-09 11:15:00,55.6,51.0,29.86,ENE,70,5.0,17.0,83,0.00,,,0.00,weatherlink.com 1.10,2013-04-09 15:15:00,
2013-04-09 11:30:00,55.4,50.0,29.85,North,352,6.0,16.0,81,0.00,,,0.00,weatherlink.com 1.10,2013-04-09 15:30:00,
2013-04-09 11:45:00,55.6,50.0,29.85,North,10,4.0,17.0,81,0.00,,,0.00,weatherlink.com 1.10,2013-04-09 15:45:00,
2013-04-09 12:00:00,57.7,51.0,29.84,NNE,27,2.0,14.0,79,0.00,,,0.00,weatherlink.com 1.10,2013-04-09 16:00:00,
2013-04-09 12:15:00,58.2,51.0,29.84,WSW,255,3.0,16.0,77,0.00,,,0.00,weatherlink.com 1.10,2013-04-09 16:15:00,
2013-04-09 12:30:00,58.4,51.0,29.84,WNW,288,11.0,14.0,76,0.00,,,0.00,weatherlink.com 1.10,2013-04-09 16:30:00,
2013-04-09 12:45:00,57.4,51.0,29.84,SW,214,3.0,16.0,78,0.00,,,0.00,weatherlink.com 1.10,2013-04-09 16:45:00,
2013-04-09 13:00:00,57.9,51.0,29.83,WSW,242,7.0,17.0,77,0.00,,,0.00,weatherlink.com 1.10,2013-04-09 17:00:00,
2013-04-09 13:15:00,57.9,50.0,29.83,NW,308,2.0,13.0,76,0.00,,,0.00,weatherlink.com 1.10,2013-04-09 17:15:00,
2013-04-09 13:30:00,58.7,51.0,29.83,West,270,4.0,14.0,75,0.00,,,0.00,weatherlink.com 1.10,2013-04-09 17:30:00,
2013-04-09 13:45:00,58.1,51.0,29.83,SSW,198,2.0,11.0,76,0.00,,,0.00,weatherlink.com 1.10,2013-04-09 17:45:00,
2013-04-09 14:00:00,59.2,51.0,29.83,SSE,165,4.0,15.0,73,0.00,,,0.00,weatherlink.com 1.10,2013-04-09 18:00:00,
2013-04-09 14:15:00,60.1,51.0,29.84,WSW,242,5.0,9.0,71,0.00,,,0.00,weatherlink.com 1.10,2013-04-09 18:15:00,
2013-04-09 14:30:00,60.4,51.0,29.84,SSW,205,1.0,10.0,71,0.00,,,0.00,weatherlink.com 1.10,2013-04-09 18:30:00,
2013-04-09 14:45:00,60.2,50.0,29.84,SW,228,4.0,12.0,70,0.00,,,0.00,weatherlink.com 1.10,2013-04-09 18:45:00,
2013-04-09 15:00:00,60.8,51.0,29.84,SSE,153,3.0,9.0,70,0.00,,,0.00,weatherlink.com 1.10,2013-04-09 19:00:00,
2013-04-09 15:15:00,63.0,52.0,29.84,SSW,204,5.0,10.0,67,0.00,,,0.00,weatherlink.com 1.10,2013-04-09 19:15:00,
2013-04-09 15:30:00,64.1,52.0,29.84,SSW,197,2.0,10.0,65,0.00,,,0.00,weatherlink.com 1.10,2013-04-09 19:30:00,
2013-04-09 15:45:00,65.4,52.0,29.84,West,269,5.0,7.0,62,0.00,,,0.00,weatherlink.com 1.10,2013-04-09 19:45:00,
2013-04-09 16:00:00,66.2,52.0,29.84,WSW,255,4.0,6.0,60,0.00,,,0.00,weatherlink.com 1.10,2013-04-09 20:00:00,
2013-04-09 16:15:00,67.1,52.0,29.84,SW,222,2.0,8.0,58,0.00,,,0.00,weatherlink.com 1.10,2013-04-09 20:15:00,
2013-04-09 16:30:00,68.1,52.0,29.85,South,181,4.0,5.0,57,0.00,,,0.00,weatherlink.com 1.10,2013-04-09 20:30:00,
2013-04-09 16:45:00,63.8,51.0,29.85,ESE,105,1.0,7.0,63,0.00,,,0.00,weatherlink.com 1.10,2013-04-09 20:45:00,
2013-04-09 17:00:00,57.3,49.0,29.87,East,98,6.0,11.0,74,0.00,,,0.00,weatherlink.com 1.10,2013-04-09 21:00:00,
2013-04-09 17:15:00,58.8,49.0,29.88,ENE,67,3.0,4.0,71,0.00,,,0.00,weatherlink.com 1.10,2013-04-09 21:15:00,
2013-04-09 17:31:00,58.6,49.0,29.88,NE,56,2.0,2.0,70,0.00,,,0.00,weatherlink.com 1.10,2013-04-09 21:31:00,
2013-04-09 17:45:00,57.1,49.0,29.88,NE,49,4.0,4.0,74,0.00,,,0.00,weatherlink.com 1.10,2013-04-09 21:45:00,
2013-04-09 18:01:00,53.4,47.0,29.90,ENE,62,7.0,11.0,79,0.00,,,0.00,weatherlink.com 1.10,2013-04-09 22:01:00,
2013-04-09 18:31:00,50.3,47.0,29.92,East,79,7.0,15.0,87,0.00,,,0.00,weatherlink.com 1.10,2013-04-09 22:31:00,
2013-04-09 19:01:00,49.7,46.0,29.93,ESE,107,6.0,9.0,88,0.00,,,0.00,weatherlink.com 1.10,2013-04-09 23:01:00,
2013-04-09 19:16:00,49.1,46.0,29.94,SSE,153,4.0,9.0,89,0.00,,,0.00,weatherlink.com 1.10,2013-04-09 23:16:00,
2013-04-09 19:31:00,48.7,46.0,29.94,SE,134,5.0,8.0,89,0.00,,,0.00,weatherlink.com 1.10,2013-04-09 23:31:00,
2013-04-09 20:01:00,48.3,46.0,29.96,SE,131,3.0,6.0,90,0.00,,,0.00,weatherlink.com 1.10,2013-04-10 00:01:00,
2013-04-09 20:31:00,48.6,46.0,29.98,East,91,3.0,6.0,89,0.00,,,0.00,weatherlink.com 1.10,2013-04-10 00:31:00,
2013-04-09 20:46:00,48.4,45.0,29.98,SE,146,5.0,8.0,89,0.00,,,0.00,weatherlink.com 1.10,2013-04-10 00:46:00,
2013-04-09 21:31:00,48.6,45.0,30.00,SSE,151,4.0,8.0,87,0.00,,,0.00,weatherlink.com 1.10,2013-04-10 01:31:00,
2013-04-09 21:46:00,47.9,45.0,30.00,SSE,160,4.0,7.0,89,0.00,,,0.00,weatherlink.com 1.10,2013-04-10 01:46:00,
2013-04-09 22:01:00,47.3,45.0,30.00,SSE,148,5.0,7.0,90,0.00,,,0.00,weatherlink.com 1.10,2013-04-10 02:01:00,
2013-04-09 22:16:00,47.6,45.0,30.00,SE,127,5.0,8.0,90,0.00,,,0.00,weatherlink.com 1.10,2013-04-10 02:16:00,
2013-04-09 22:31:00,47.6,45.0,29.99,ESE,120,7.0,9.0,90,0.00,,,0.00,weatherlink.com 1.10,2013-04-10 02:31:00,
2013-04-09 22:46:00,47.3,45.0,29.99,SE,141,5.0,10.0,90,0.00,,,0.00,weatherlink.com 1.10,2013-04-10 02:46:00,
2013-04-09 23:01:00,46.9,44.0,29.99,SE,134,3.0,6.0,90,0.00,,,0.00,weatherlink.com 1.10,2013-04-10 03:01:00,
2013-04-09 23:16:00,46.7,44.0,29.99,SSE,150,3.0,7.0,91,0.00,,,0.00,weatherlink.com 1.10,2013-04-10 03:16:00,
2013-04-09 23:31:00,46.8,44.0,29.98,SE,127,5.0,7.0,91,0.00,,,0.00,weatherlink.com 1.10,2013-04-10 03:31:00,
2013-04-09 23:46:00,47.0,44.0,29.97,SE,125,5.0,7.0,90,0.00,,,0.00,weatherlink.com 1.10,2013-04-10 03:46:00,